sensor_id;sensor_type;location;lat;lon;timestamp;temperature;humidity
10316;DHT22;5203;48.976;8.306;2023-04-24T00:01:47;12.00;94.10
10316;DHT22;5203;48.976;8.306;2023-04-24T00:04:13;12.10;93.30
10316;DHT22;5203;48.976;8.306;2023-04-24T00:06:41;12.10;92.60
10316;DHT22;5203;48.976;8.306;2023-04-24T00:09:08;12.10;93.10
10316;DHT22;5203;48.976;8.306;2023-04-24T00:11:36;12.20;92.10
10316;DHT22;5203;48.976;8.306;2023-04-24T00:14:02;12.20;92.80
10316;DHT22;5203;48.976;8.306;2023-04-24T00:16:28;12.20;91.70
10316;DHT22;5203;48.976;8.306;2023-04-24T00:18:54;12.30;91.60
10316;DHT22;5203;48.976;8.306;2023-04-24T00:21:20;12.30;91.80
10316;DHT22;5203;48.976;8.306;2023-04-24T00:23:47;12.30;91.90
10316;DHT22;5203;48.976;8.306;2023-04-24T00:26:13;12.30;92.60
10316;DHT22;5203;48.976;8.306;2023-04-24T00:28:39;12.30;92.00
10316;DHT22;5203;48.976;8.306;2023-04-24T00:31:05;12.20;92.40
10316;DHT22;5203;48.976;8.306;2023-04-24T00:33:30;12.20;93.80
10316;DHT22;5203;48.976;8.306;2023-04-24T00:35:56;12.10;94.60
10316;DHT22;5203;48.976;8.306;2023-04-24T00:38:21;12.00;94.80
10316;DHT22;5203;48.976;8.306;2023-04-24T00:40:48;12.00;94.50
10316;DHT22;5203;48.976;8.306;2023-04-24T00:43:15;12.00;94.50
10316;DHT22;5203;48.976;8.306;2023-04-24T00:45:41;12.00;95.20
10316;DHT22;5203;48.976;8.306;2023-04-24T00:48:07;12.00;94.60
10316;DHT22;5203;48.976;8.306;2023-04-24T00:50:35;12.00;94.50
10316;DHT22;5203;48.976;8.306;2023-04-24T00:53:01;12.00;94.50
10316;DHT22;5203;48.976;8.306;2023-04-24T00:55:26;12.10;94.60
10316;DHT22;5203;48.976;8.306;2023-04-24T00:57:52;12.00;95.00
10316;DHT22;5203;48.976;8.306;2023-04-24T01:00:19;12.10;93.70
10316;DHT22;5203;48.976;8.306;2023-04-24T01:02:45;12.10;93.90
10316;DHT22;5203;48.976;8.306;2023-04-24T01:05:15;12.00;94.50
10316;DHT22;5203;48.976;8.306;2023-04-24T01:07:41;12.10;95.40
10316;DHT22;5203;48.976;8.306;2023-04-24T01:10:09;12.10;94.70
10316;DHT22;5203;48.976;8.306;2023-04-24T01:12:35;12.10;94.20
10316;DHT22;5203;48.976;8.306;2023-04-24T01:15:02;12.10;94.00
10316;DHT22;5203;48.976;8.306;2023-04-24T01:17:29;12.10;93.70
10316;DHT22;5203;48.976;8.306;2023-04-24T01:19:55;12.00;95.00
10316;DHT22;5203;48.976;8.306;2023-04-24T01:22:22;12.00;95.80
10316;DHT22;5203;48.976;8.306;2023-04-24T01:24:48;12.00;96.00
10316;DHT22;5203;48.976;8.306;2023-04-24T01:27:14;12.00;95.50
10316;DHT22;5203;48.976;8.306;2023-04-24T01:29:40;12.10;95.30
10316;DHT22;5203;48.976;8.306;2023-04-24T01:32:06;12.20;94.80
10316;DHT22;5203;48.976;8.306;2023-04-24T01:34:32;12.20;95.00
10316;DHT22;5203;48.976;8.306;2023-04-24T01:36:58;12.30;96.70
10316;DHT22;5203;48.976;8.306;2023-04-24T01:39:24;12.20;97.60
10316;DHT22;5203;48.976;8.306;2023-04-24T01:41:51;12.10;99.00
10316;DHT22;5203;48.976;8.306;2023-04-24T01:44:17;12.20;98.30
10316;DHT22;5203;48.976;8.306;2023-04-24T01:46:43;12.10;99.40
10316;DHT22;5203;48.976;8.306;2023-04-24T01:49:09;12.00;99.90
10316;DHT22;5203;48.976;8.306;2023-04-24T01:51:35;12.00;99.90
10316;DHT22;5203;48.976;8.306;2023-04-24T01:54:00;11.90;99.90
10316;DHT22;5203;48.976;8.306;2023-04-24T01:56:29;11.80;99.90
10316;DHT22;5203;48.976;8.306;2023-04-24T01:58:55;11.80;99.90
10316;DHT22;5203;48.976;8.306;2023-04-24T02:01:22;11.70;99.90
10316;DHT22;5203;48.976;8.306;2023-04-24T02:03:48;11.70;99.90
10316;DHT22;5203;48.976;8.306;2023-04-24T02:06:14;11.70;99.90
10316;DHT22;5203;48.976;8.306;2023-04-24T02:08:40;11.70;99.90
10316;DHT22;5203;48.976;8.306;2023-04-24T02:11:05;11.80;99.90
10316;DHT22;5203;48.976;8.306;2023-04-24T02:13:31;11.70;99.90
10316;DHT22;5203;48.976;8.306;2023-04-24T02:15:58;11.70;99.90
10316;DHT22;5203;48.976;8.306;2023-04-24T02:18:24;11.70;99.90
10316;DHT22;5203;48.976;8.306;2023-04-24T02:20:50;11.70;99.90
10316;DHT22;5203;48.976;8.306;2023-04-24T02:23:15;11.70;99.90
10316;DHT22;5203;48.976;8.306;2023-04-24T02:25:41;11.70;99.90
10316;DHT22;5203;48.976;8.306;2023-04-24T02:28:07;11.80;99.90
10316;DHT22;5203;48.976;8.306;2023-04-24T02:30:32;11.80;99.90
10316;DHT22;5203;48.976;8.306;2023-04-24T02:32:58;11.80;99.90
10316;DHT22;5203;48.976;8.306;2023-04-24T02:35:24;11.80;99.90
10316;DHT22;5203;48.976;8.306;2023-04-24T02:37:49;11.90;99.90
10316;DHT22;5203;48.976;8.306;2023-04-24T02:40:15;11.80;99.90
10316;DHT22;5203;48.976;8.306;2023-04-24T02:42:40;11.80;99.90
10316;DHT22;5203;48.976;8.306;2023-04-24T02:45:06;11.90;99.90
10316;DHT22;5203;48.976;8.306;2023-04-24T02:47:32;11.80;99.90
10316;DHT22;5203;48.976;8.306;2023-04-24T02:49:58;11.80;99.90
10316;DHT22;5203;48.976;8.306;2023-04-24T02:52:23;11.70;99.90
10316;DHT22;5203;48.976;8.306;2023-04-24T02:54:49;11.60;99.90
10316;DHT22;5203;48.976;8.306;2023-04-24T02:57:15;11.60;99.90
10316;DHT22;5203;48.976;8.306;2023-04-24T02:59:40;11.40;99.90
10316;DHT22;5203;48.976;8.306;2023-04-24T03:02:06;11.30;99.90
10316;DHT22;5203;48.976;8.306;2023-04-24T03:04:31;11.30;99.90
10316;DHT22;5203;48.976;8.306;2023-04-24T03:06:57;11.20;99.90
10316;DHT22;5203;48.976;8.306;2023-04-24T03:09:24;11.20;99.90
10316;DHT22;5203;48.976;8.306;2023-04-24T03:11:50;11.20;99.90
10316;DHT22;5203;48.976;8.306;2023-04-24T03:14:16;11.10;99.90
10316;DHT22;5203;48.976;8.306;2023-04-24T03:16:42;11.00;99.90
10316;DHT22;5203;48.976;8.306;2023-04-24T03:19:08;11.00;99.90
10316;DHT22;5203;48.976;8.306;2023-04-24T03:21:33;11.00;99.90
10316;DHT22;5203;48.976;8.306;2023-04-24T03:24:01;11.00;99.90
10316;DHT22;5203;48.976;8.306;2023-04-24T03:26:27;11.00;99.90
10316;DHT22;5203;48.976;8.306;2023-04-24T03:28:53;11.00;99.90
10316;DHT22;5203;48.976;8.306;2023-04-24T03:31:18;11.00;99.90
10316;DHT22;5203;48.976;8.306;2023-04-24T03:33:46;11.00;99.90
10316;DHT22;5203;48.976;8.306;2023-04-24T03:36:12;11.10;99.90
10316;DHT22;5203;48.976;8.306;2023-04-24T03:38:38;11.00;99.90
10316;DHT22;5203;48.976;8.306;2023-04-24T03:41:03;10.90;99.90
10316;DHT22;5203;48.976;8.306;2023-04-24T03:43:29;11.00;99.90
10316;DHT22;5203;48.976;8.306;2023-04-24T03:45:54;10.90;99.90
10316;DHT22;5203;48.976;8.306;2023-04-24T03:48:20;10.90;99.90
10316;DHT22;5203;48.976;8.306;2023-04-24T03:50:46;10.80;99.90
10316;DHT22;5203;48.976;8.306;2023-04-24T03:53:11;10.80;99.90
10316;DHT22;5203;48.976;8.306;2023-04-24T03:55:37;10.60;99.90
10316;DHT22;5203;48.976;8.306;2023-04-24T03:58:03;10.60;99.90
10316;DHT22;5203;48.976;8.306;2023-04-24T04:00:28;10.50;99.90
10316;DHT22;5203;48.976;8.306;2023-04-24T04:02:58;10.60;99.90
10316;DHT22;5203;48.976;8.306;2023-04-24T04:05:24;10.60;99.90
10316;DHT22;5203;48.976;8.306;2023-04-24T04:07:49;10.50;99.90
10316;DHT22;5203;48.976;8.306;2023-04-24T04:10:15;10.50;99.90
10316;DHT22;5203;48.976;8.306;2023-04-24T04:12:42;10.40;99.90
10316;DHT22;5203;48.976;8.306;2023-04-24T04:15:08;10.30;99.90
10316;DHT22;5203;48.976;8.306;2023-04-24T04:17:34;10.20;99.90
10316;DHT22;5203;48.976;8.306;2023-04-24T04:19:59;10.40;99.90
10316;DHT22;5203;48.976;8.306;2023-04-24T04:22:25;10.30;99.90
10316;DHT22;5203;48.976;8.306;2023-04-24T04:24:51;10.20;99.90
10316;DHT22;5203;48.976;8.306;2023-04-24T04:27:16;10.20;99.90
10316;DHT22;5203;48.976;8.306;2023-04-24T04:29:44;10.20;99.90
10316;DHT22;5203;48.976;8.306;2023-04-24T04:32:09;10.10;99.90
10316;DHT22;5203;48.976;8.306;2023-04-24T04:34:35;10.00;99.90
10316;DHT22;5203;48.976;8.306;2023-04-24T04:37:03;10.00;99.90
10316;DHT22;5203;48.976;8.306;2023-04-24T04:39:29;9.90;99.90
10316;DHT22;5203;48.976;8.306;2023-04-24T04:41:55;10.00;99.90
10316;DHT22;5203;48.976;8.306;2023-04-24T04:44:20;9.90;99.90
10316;DHT22;5203;48.976;8.306;2023-04-24T04:46:46;9.90;99.90
10316;DHT22;5203;48.976;8.306;2023-04-24T04:49:12;10.00;99.90
10316;DHT22;5203;48.976;8.306;2023-04-24T04:51:38;9.90;99.90
10316;DHT22;5203;48.976;8.306;2023-04-24T04:54:04;9.90;99.90
10316;DHT22;5203;48.976;8.306;2023-04-24T04:56:30;10.00;99.90
10316;DHT22;5203;48.976;8.306;2023-04-24T04:58:55;9.90;99.90
10316;DHT22;5203;48.976;8.306;2023-04-24T05:01:21;10.00;99.90
10316;DHT22;5203;48.976;8.306;2023-04-24T05:03:48;10.00;99.90
10316;DHT22;5203;48.976;8.306;2023-04-24T05:06:14;10.10;99.90
10316;DHT22;5203;48.976;8.306;2023-04-24T05:08:40;10.10;99.90
10316;DHT22;5203;48.976;8.306;2023-04-24T05:11:06;10.10;99.90
10316;DHT22;5203;48.976;8.306;2023-04-24T05:13:31;10.10;99.90
10316;DHT22;5203;48.976;8.306;2023-04-24T05:15:57;10.20;99.90
10316;DHT22;5203;48.976;8.306;2023-04-24T05:18:23;10.30;99.90
10316;DHT22;5203;48.976;8.306;2023-04-24T05:20:48;10.20;99.90
10316;DHT22;5203;48.976;8.306;2023-04-24T05:23:14;10.30;99.90
10316;DHT22;5203;48.976;8.306;2023-04-24T05:25:40;10.40;99.90
10316;DHT22;5203;48.976;8.306;2023-04-24T05:28:06;10.40;99.90
10316;DHT22;5203;48.976;8.306;2023-04-24T05:30:32;10.50;99.90
10316;DHT22;5203;48.976;8.306;2023-04-24T05:32:58;10.40;99.90
10316;DHT22;5203;48.976;8.306;2023-04-24T05:35:23;10.50;99.90
10316;DHT22;5203;48.976;8.306;2023-04-24T05:37:49;10.50;99.90
10316;DHT22;5203;48.976;8.306;2023-04-24T05:40:15;10.50;99.90
10316;DHT22;5203;48.976;8.306;2023-04-24T05:42:40;10.50;99.90
10316;DHT22;5203;48.976;8.306;2023-04-24T05:45:06;10.50;99.90
10316;DHT22;5203;48.976;8.306;2023-04-24T05:47:32;10.50;99.90
10316;DHT22;5203;48.976;8.306;2023-04-24T05:49:58;10.50;99.90
10316;DHT22;5203;48.976;8.306;2023-04-24T05:52:23;10.50;98.70
10316;DHT22;5203;48.976;8.306;2023-04-24T05:54:49;10.50;97.60
10316;DHT22;5203;48.976;8.306;2023-04-24T05:57:14;10.50;94.90
10316;DHT22;5203;48.976;8.306;2023-04-24T05:59:41;10.60;95.50
10316;DHT22;5203;48.976;8.306;2023-04-24T06:02:07;10.60;94.10
10316;DHT22;5203;48.976;8.306;2023-04-24T06:04:33;10.60;94.20
10316;DHT22;5203;48.976;8.306;2023-04-24T06:06:59;10.70;94.60
10316;DHT22;5203;48.976;8.306;2023-04-24T06:09:25;10.80;95.70
10316;DHT22;5203;48.976;8.306;2023-04-24T06:11:51;10.60;95.60
10316;DHT22;5203;48.976;8.306;2023-04-24T06:14:19;10.50;96.00
10316;DHT22;5203;48.976;8.306;2023-04-24T06:16:45;10.50;96.80
10316;DHT22;5203;48.976;8.306;2023-04-24T06:19:10;10.70;94.70
10316;DHT22;5203;48.976;8.306;2023-04-24T06:21:36;10.60;94.90
10316;DHT22;5203;48.976;8.306;2023-04-24T06:24:02;10.60;96.20
10316;DHT22;5203;48.976;8.306;2023-04-24T06:26:29;10.60;95.80
10316;DHT22;5203;48.976;8.306;2023-04-24T06:28:55;10.50;95.00
10316;DHT22;5203;48.976;8.306;2023-04-24T06:31:21;10.70;90.70
10316;DHT22;5203;48.976;8.306;2023-04-24T06:33:48;10.70;91.10
10316;DHT22;5203;48.976;8.306;2023-04-24T06:36:15;10.70;93.40
10316;DHT22;5203;48.976;8.306;2023-04-24T06:38:41;10.60;90.30
10316;DHT22;5203;48.976;8.306;2023-04-24T06:41:06;10.70;91.50
10316;DHT22;5203;48.976;8.306;2023-04-24T06:43:33;10.80;91.50
10316;DHT22;5203;48.976;8.306;2023-04-24T06:45:59;10.80;91.00
10316;DHT22;5203;48.976;8.306;2023-04-24T06:48:26;10.90;88.00
10316;DHT22;5203;48.976;8.306;2023-04-24T06:50:52;10.80;86.90
10316;DHT22;5203;48.976;8.306;2023-04-24T06:53:18;10.90;84.80
10316;DHT22;5203;48.976;8.306;2023-04-24T06:55:44;10.90;85.10
10316;DHT22;5203;48.976;8.306;2023-04-24T06:58:11;11.00;82.30
10316;DHT22;5203;48.976;8.306;2023-04-24T07:00:37;10.90;83.70
10316;DHT22;5203;48.976;8.306;2023-04-24T07:03:03;10.90;84.20
10316;DHT22;5203;48.976;8.306;2023-04-24T07:05:31;11.00;84.90
10316;DHT22;5203;48.976;8.306;2023-04-24T07:07:59;11.10;83.80
10316;DHT22;5203;48.976;8.306;2023-04-24T07:10:25;11.20;82.90
10316;DHT22;5203;48.976;8.306;2023-04-24T07:12:54;11.20;83.30
10316;DHT22;5203;48.976;8.306;2023-04-24T07:15:20;11.20;83.20
10316;DHT22;5203;48.976;8.306;2023-04-24T07:17:46;11.20;84.00
10316;DHT22;5203;48.976;8.306;2023-04-24T07:20:11;11.30;81.30
10316;DHT22;5203;48.976;8.306;2023-04-24T07:22:39;11.30;80.90
10316;DHT22;5203;48.976;8.306;2023-04-24T07:25:06;11.40;78.80
10316;DHT22;5203;48.976;8.306;2023-04-24T07:27:32;11.40;79.00
10316;DHT22;5203;48.976;8.306;2023-04-24T07:29:58;11.70;76.20
10316;DHT22;5203;48.976;8.306;2023-04-24T07:32:23;11.70;74.60
10316;DHT22;5203;48.976;8.306;2023-04-24T07:34:49;11.60;72.30
10316;DHT22;5203;48.976;8.306;2023-04-24T07:37:15;11.50;73.70
10316;DHT22;5203;48.976;8.306;2023-04-24T07:39:40;11.50;74.20
10316;DHT22;5203;48.976;8.306;2023-04-24T07:42:06;11.60;75.70
10316;DHT22;5203;48.976;8.306;2023-04-24T07:44:32;11.50;72.40
10316;DHT22;5203;48.976;8.306;2023-04-24T07:46:57;11.60;73.60
10316;DHT22;5203;48.976;8.306;2023-04-24T07:49:23;11.50;72.60
10316;DHT22;5203;48.976;8.306;2023-04-24T07:51:49;11.40;74.60
10316;DHT22;5203;48.976;8.306;2023-04-24T07:54:15;11.30;75.00
10316;DHT22;5203;48.976;8.306;2023-04-24T07:56:41;11.30;76.40
10316;DHT22;5203;48.976;8.306;2023-04-24T07:59:08;11.20;78.40
10316;DHT22;5203;48.976;8.306;2023-04-24T08:01:35;11.00;79.50
10316;DHT22;5203;48.976;8.306;2023-04-24T08:04:01;11.00;81.90
10316;DHT22;5203;48.976;8.306;2023-04-24T08:06:27;11.00;83.30
10316;DHT22;5203;48.976;8.306;2023-04-24T08:08:56;11.20;82.10
10316;DHT22;5203;48.976;8.306;2023-04-24T08:11:22;11.30;79.50
10316;DHT22;5203;48.976;8.306;2023-04-24T08:13:47;11.70;76.90
10316;DHT22;5203;48.976;8.306;2023-04-24T08:16:13;11.80;73.20
10316;DHT22;5203;48.976;8.306;2023-04-24T08:18:39;11.80;75.00
10316;DHT22;5203;48.976;8.306;2023-04-24T08:21:04;11.60;77.20
10316;DHT22;5203;48.976;8.306;2023-04-24T08:23:30;11.40;78.80
10316;DHT22;5203;48.976;8.306;2023-04-24T08:25:56;10.80;85.10
10316;DHT22;5203;48.976;8.306;2023-04-24T08:28:22;10.50;90.80
10316;DHT22;5203;48.976;8.306;2023-04-24T08:30:48;10.40;94.00
10316;DHT22;5203;48.976;8.306;2023-04-24T08:33:17;10.10;95.30
10316;DHT22;5203;48.976;8.306;2023-04-24T08:35:43;10.10;93.60
10316;DHT22;5203;48.976;8.306;2023-04-24T08:38:09;10.10;97.50
10316;DHT22;5203;48.976;8.306;2023-04-24T08:40:35;10.20;97.70
10316;DHT22;5203;48.976;8.306;2023-04-24T08:43:02;10.10;96.80
10316;DHT22;5203;48.976;8.306;2023-04-24T08:45:29;10.10;96.50
10316;DHT22;5203;48.976;8.306;2023-04-24T08:47:55;10.40;94.20
10316;DHT22;5203;48.976;8.306;2023-04-24T08:50:22;10.70;93.00
10316;DHT22;5203;48.976;8.306;2023-04-24T08:52:50;11.00;89.50
10316;DHT22;5203;48.976;8.306;2023-04-24T08:55:16;11.50;90.70
10316;DHT22;5203;48.976;8.306;2023-04-24T08:57:45;11.80;84.40
10316;DHT22;5203;48.976;8.306;2023-04-24T09:00:11;11.90;81.10
10316;DHT22;5203;48.976;8.306;2023-04-24T09:02:41;11.90;79.20
10316;DHT22;5203;48.976;8.306;2023-04-24T09:05:08;12.00;75.60
10316;DHT22;5203;48.976;8.306;2023-04-24T09:07:35;12.00;75.00
10316;DHT22;5203;48.976;8.306;2023-04-24T09:10:05;12.00;75.60
10316;DHT22;5203;48.976;8.306;2023-04-24T09:12:32;12.10;74.20
10316;DHT22;5203;48.976;8.306;2023-04-24T09:15:00;11.90;70.90
10316;DHT22;5203;48.976;8.306;2023-04-24T09:17:26;11.90;70.30
10316;DHT22;5203;48.976;8.306;2023-04-24T09:19:53;12.20;70.50
10316;DHT22;5203;48.976;8.306;2023-04-24T09:22:20;12.30;70.40
10316;DHT22;5203;48.976;8.306;2023-04-24T09:24:45;12.20;70.30
10316;DHT22;5203;48.976;8.306;2023-04-24T09:27:11;12.20;66.70
10316;DHT22;5203;48.976;8.306;2023-04-24T09:29:38;12.10;69.00
10316;DHT22;5203;48.976;8.306;2023-04-24T09:32:21;12.00;69.30
10316;DHT22;5203;48.976;8.306;2023-04-24T09:34:47;12.00;69.00
10316;DHT22;5203;48.976;8.306;2023-04-24T09:37:38;12.00;69.10
10316;DHT22;5203;48.976;8.306;2023-04-24T09:42:33;12.00;66.00
10316;DHT22;5203;48.976;8.306;2023-04-24T09:44:59;12.10;68.20
10316;DHT22;5203;48.976;8.306;2023-04-24T09:47:24;12.20;67.50
10316;DHT22;5203;48.976;8.306;2023-04-24T09:49:50;12.10;67.10
10316;DHT22;5203;48.976;8.306;2023-04-24T09:52:16;12.10;69.40
10316;DHT22;5203;48.976;8.306;2023-04-24T09:54:41;12.30;68.80
10316;DHT22;5203;48.976;8.306;2023-04-24T09:57:07;12.30;67.70
10316;DHT22;5203;48.976;8.306;2023-04-24T09:59:34;12.40;68.60
10316;DHT22;5203;48.976;8.306;2023-04-24T10:02:01;12.50;66.70
10316;DHT22;5203;48.976;8.306;2023-04-24T10:04:28;12.70;66.70
10316;DHT22;5203;48.976;8.306;2023-04-24T10:06:56;12.80;65.10
10316;DHT22;5203;48.976;8.306;2023-04-24T10:09:26;12.80;66.70
10316;DHT22;5203;48.976;8.306;2023-04-24T10:11:53;13.00;66.30
10316;DHT22;5203;48.976;8.306;2023-04-24T10:14:22;13.00;66.50
10316;DHT22;5203;48.976;8.306;2023-04-24T10:16:48;12.80;64.10
10316;DHT22;5203;48.976;8.306;2023-04-24T10:19:15;12.50;66.30
10316;DHT22;5203;48.976;8.306;2023-04-24T10:21:43;12.30;68.60
10316;DHT22;5203;48.976;8.306;2023-04-24T10:24:16;12.30;67.30
10316;DHT22;5203;48.976;8.306;2023-04-24T10:26:43;12.10;68.20
10316;DHT22;5203;48.976;8.306;2023-04-24T10:29:10;12.10;67.40
10316;DHT22;5203;48.976;8.306;2023-04-24T10:31:38;12.10;66.00
10316;DHT22;5203;48.976;8.306;2023-04-24T10:34:08;11.90;67.00
10316;DHT22;5203;48.976;8.306;2023-04-24T10:36:36;11.90;67.90
10316;DHT22;5203;48.976;8.306;2023-04-24T10:39:07;11.80;67.10
10316;DHT22;5203;48.976;8.306;2023-04-24T10:41:33;11.80;69.30
10316;DHT22;5203;48.976;8.306;2023-04-24T10:44:12;11.80;67.10
10316;DHT22;5203;48.976;8.306;2023-04-24T10:46:39;11.80;68.80
10316;DHT22;5203;48.976;8.306;2023-04-24T10:49:08;11.90;69.00
10316;DHT22;5203;48.976;8.306;2023-04-24T10:51:45;11.80;69.70
10316;DHT22;5203;48.976;8.306;2023-04-24T10:54:26;11.80;72.20
10316;DHT22;5203;48.976;8.306;2023-04-24T10:56:53;11.90;70.90
10316;DHT22;5203;48.976;8.306;2023-04-24T10:59:34;12.00;72.90
10316;DHT22;5203;48.976;8.306;2023-04-24T11:02:00;12.00;69.50
10316;DHT22;5203;48.976;8.306;2023-04-24T11:04:32;12.00;70.30
10316;DHT22;5203;48.976;8.306;2023-04-24T11:06:58;11.80;72.00
10316;DHT22;5203;48.976;8.306;2023-04-24T11:09:30;11.70;70.50
10316;DHT22;5203;48.976;8.306;2023-04-24T11:12:11;11.70;75.30
10316;DHT22;5203;48.976;8.306;2023-04-24T11:17:36;11.90;71.50
10316;DHT22;5203;48.976;8.306;2023-04-24T11:20:17;12.00;73.00
10316;DHT22;5203;48.976;8.306;2023-04-24T11:22:42;12.00;71.20
10316;DHT22;5203;48.976;8.306;2023-04-24T11:25:09;11.90;74.30
10316;DHT22;5203;48.976;8.306;2023-04-24T11:27:44;11.80;76.60
10316;DHT22;5203;48.976;8.306;2023-04-24T11:30:11;11.60;81.00
10316;DHT22;5203;48.976;8.306;2023-04-24T11:32:41;11.50;83.80
10316;DHT22;5203;48.976;8.306;2023-04-24T11:37:40;11.20;88.50
10316;DHT22;5203;48.976;8.306;2023-04-24T11:40:08;11.20;86.90
10316;DHT22;5203;48.976;8.306;2023-04-24T11:42:36;11.20;87.10
10316;DHT22;5203;48.976;8.306;2023-04-24T11:45:02;11.00;88.40
10316;DHT22;5203;48.976;8.306;2023-04-24T11:47:32;10.90;91.00
10316;DHT22;5203;48.976;8.306;2023-04-24T11:50:02;10.80;89.50
10316;DHT22;5203;48.976;8.306;2023-04-24T11:52:28;10.90;91.80
10316;DHT22;5203;48.976;8.306;2023-04-24T11:54:54;11.00;93.50
10316;DHT22;5203;48.976;8.306;2023-04-24T11:57:24;11.00;91.50
10316;DHT22;5203;48.976;8.306;2023-04-24T11:59:52;11.20;90.00
10316;DHT22;5203;48.976;8.306;2023-04-24T12:02:24;11.40;88.70
10316;DHT22;5203;48.976;8.306;2023-04-24T12:04:51;12.00;85.90
10316;DHT22;5203;48.976;8.306;2023-04-24T12:07:17;12.40;82.70
10316;DHT22;5203;48.976;8.306;2023-04-24T12:09:47;12.80;81.90
10316;DHT22;5203;48.976;8.306;2023-04-24T12:12:14;13.00;80.40
10316;DHT22;5203;48.976;8.306;2023-04-24T12:14:53;12.80;76.70
10316;DHT22;5203;48.976;8.306;2023-04-24T12:17:25;12.30;75.10
10316;DHT22;5203;48.976;8.306;2023-04-24T12:19:51;12.10;76.90
10316;DHT22;5203;48.976;8.306;2023-04-24T12:22:16;12.30;78.50
10316;DHT22;5203;48.976;8.306;2023-04-24T12:25:02;12.70;77.80
10316;DHT22;5203;48.976;8.306;2023-04-24T12:27:30;13.00;71.90
10316;DHT22;5203;48.976;8.306;2023-04-24T12:29:57;13.30;68.60
10316;DHT22;5203;48.976;8.306;2023-04-24T12:32:23;13.80;72.10
10316;DHT22;5203;48.976;8.306;2023-04-24T12:34:50;14.00;67.70
10316;DHT22;5203;48.976;8.306;2023-04-24T12:37:17;13.90;68.30
10316;DHT22;5203;48.976;8.306;2023-04-24T12:39:59;14.40;70.10
10316;DHT22;5203;48.976;8.306;2023-04-24T12:42:27;14.20;64.10
10316;DHT22;5203;48.976;8.306;2023-04-24T12:44:57;14.50;65.10
10316;DHT22;5203;48.976;8.306;2023-04-24T12:47:24;14.60;61.50
10316;DHT22;5203;48.976;8.306;2023-04-24T12:49:50;14.70;59.70
10316;DHT22;5203;48.976;8.306;2023-04-24T12:52:21;14.50;61.70
10316;DHT22;5203;48.976;8.306;2023-04-24T12:54:47;13.80;61.70
10316;DHT22;5203;48.976;8.306;2023-04-24T12:57:13;13.40;64.60
10316;DHT22;5203;48.976;8.306;2023-04-24T12:59:39;13.40;66.80
10316;DHT22;5203;48.976;8.306;2023-04-24T13:02:05;13.20;64.90
10316;DHT22;5203;48.976;8.306;2023-04-24T13:04:31;13.20;66.40
10316;DHT22;5203;48.976;8.306;2023-04-24T13:06:57;13.20;66.90
10316;DHT22;5203;48.976;8.306;2023-04-24T13:09:23;13.20;67.80
10316;DHT22;5203;48.976;8.306;2023-04-24T13:11:49;13.50;71.50
10316;DHT22;5203;48.976;8.306;2023-04-24T13:14:15;13.80;66.00
10316;DHT22;5203;48.976;8.306;2023-04-24T13:16:41;15.00;65.80
10316;DHT22;5203;48.976;8.306;2023-04-24T13:19:09;15.80;63.20
10316;DHT22;5203;48.976;8.306;2023-04-24T13:21:35;16.60;57.70
10316;DHT22;5203;48.976;8.306;2023-04-24T13:24:01;17.20;55.20
10316;DHT22;5203;48.976;8.306;2023-04-24T13:26:29;16.90;55.30
10316;DHT22;5203;48.976;8.306;2023-04-24T13:28:55;16.40;54.30
10316;DHT22;5203;48.976;8.306;2023-04-24T13:31:20;15.50;53.20
10316;DHT22;5203;48.976;8.306;2023-04-24T13:33:46;14.80;57.60
10316;DHT22;5203;48.976;8.306;2023-04-24T13:36:11;14.70;57.90
10316;DHT22;5203;48.976;8.306;2023-04-24T13:38:37;14.40;60.50
10316;DHT22;5203;48.976;8.306;2023-04-24T13:41:03;14.80;58.90
10316;DHT22;5203;48.976;8.306;2023-04-24T13:43:28;15.00;57.70
10316;DHT22;5203;48.976;8.306;2023-04-24T13:45:55;14.70;60.10
10316;DHT22;5203;48.976;8.306;2023-04-24T13:48:20;14.40;61.10
10316;DHT22;5203;48.976;8.306;2023-04-24T13:50:46;14.20;63.50
10316;DHT22;5203;48.976;8.306;2023-04-24T13:53:13;14.20;63.00
10316;DHT22;5203;48.976;8.306;2023-04-24T13:55:39;14.10;64.60
10316;DHT22;5203;48.976;8.306;2023-04-24T13:58:05;13.90;61.70
10316;DHT22;5203;48.976;8.306;2023-04-24T14:00:31;13.60;62.60
10316;DHT22;5203;48.976;8.306;2023-04-24T14:02:57;13.60;63.10
10316;DHT22;5203;48.976;8.306;2023-04-24T14:05:23;13.20;64.30
10316;DHT22;5203;48.976;8.306;2023-04-24T14:07:48;12.90;66.10
10316;DHT22;5203;48.976;8.306;2023-04-24T14:10:14;12.60;67.00
10316;DHT22;5203;48.976;8.306;2023-04-24T14:12:40;12.60;68.70
10316;DHT22;5203;48.976;8.306;2023-04-24T14:15:06;12.60;74.40
10316;DHT22;5203;48.976;8.306;2023-04-24T14:17:33;12.40;78.50
10316;DHT22;5203;48.976;8.306;2023-04-24T14:19:59;12.70;74.40
10316;DHT22;5203;48.976;8.306;2023-04-24T14:22:26;13.00;74.40
10316;DHT22;5203;48.976;8.306;2023-04-24T14:24:51;13.20;76.00
10316;DHT22;5203;48.976;8.306;2023-04-24T14:27:17;13.40;71.10
10316;DHT22;5203;48.976;8.306;2023-04-24T14:29:43;13.50;69.80
10316;DHT22;5203;48.976;8.306;2023-04-24T14:32:10;13.40;66.90
10316;DHT22;5203;48.976;8.306;2023-04-24T14:34:36;13.80;65.70
10316;DHT22;5203;48.976;8.306;2023-04-24T14:37:02;14.40;64.00
10316;DHT22;5203;48.976;8.306;2023-04-24T14:39:28;15.30;59.20
10316;DHT22;5203;48.976;8.306;2023-04-24T14:41:54;15.60;58.40
10316;DHT22;5203;48.976;8.306;2023-04-24T14:44:20;15.80;57.50
10316;DHT22;5203;48.976;8.306;2023-04-24T14:46:46;15.90;54.80
10316;DHT22;5203;48.976;8.306;2023-04-24T14:49:11;15.80;56.80
10316;DHT22;5203;48.976;8.306;2023-04-24T14:51:37;15.50;58.00
10316;DHT22;5203;48.976;8.306;2023-04-24T14:54:03;14.60;58.30
10316;DHT22;5203;48.976;8.306;2023-04-24T14:56:29;14.00;61.50
10316;DHT22;5203;48.976;8.306;2023-04-24T14:58:55;13.70;64.30
10316;DHT22;5203;48.976;8.306;2023-04-24T15:01:21;13.60;66.00
10316;DHT22;5203;48.976;8.306;2023-04-24T15:03:47;13.50;64.70
10316;DHT22;5203;48.976;8.306;2023-04-24T15:06:12;13.40;64.70
10316;DHT22;5203;48.976;8.306;2023-04-24T15:08:38;13.30;66.20
10316;DHT22;5203;48.976;8.306;2023-04-24T15:11:04;13.40;64.70
10316;DHT22;5203;48.976;8.306;2023-04-24T15:13:30;13.40;64.30
10316;DHT22;5203;48.976;8.306;2023-04-24T15:15:55;13.40;65.70
10316;DHT22;5203;48.976;8.306;2023-04-24T15:18:21;13.40;64.30
10316;DHT22;5203;48.976;8.306;2023-04-24T15:20:46;13.40;63.80
10316;DHT22;5203;48.976;8.306;2023-04-24T15:23:12;13.40;63.80
10316;DHT22;5203;48.976;8.306;2023-04-24T15:25:38;13.50;63.70
10316;DHT22;5203;48.976;8.306;2023-04-24T15:28:04;13.50;63.70
10316;DHT22;5203;48.976;8.306;2023-04-24T15:30:32;13.30;64.40
10316;DHT22;5203;48.976;8.306;2023-04-24T15:32:59;13.20;64.60
10316;DHT22;5203;48.976;8.306;2023-04-24T15:35:25;13.40;64.70
10316;DHT22;5203;48.976;8.306;2023-04-24T15:37:51;13.30;65.10
10316;DHT22;5203;48.976;8.306;2023-04-24T15:40:17;13.10;65.10
10316;DHT22;5203;48.976;8.306;2023-04-24T15:42:43;13.10;63.50
10316;DHT22;5203;48.976;8.306;2023-04-24T15:45:09;12.90;66.00
10316;DHT22;5203;48.976;8.306;2023-04-24T15:47:35;12.80;67.30
10316;DHT22;5203;48.976;8.306;2023-04-24T15:50:02;12.80;66.70
10316;DHT22;5203;48.976;8.306;2023-04-24T15:52:28;12.80;64.60